Time;durP1;ratioP1;P1;durP2;ratioP2;P2;SDS_P1;SDS_P2;PMS_P1;PMS_P2;Temp;Humidity;BMP_temperature;BMP_pressure;BME280_temperature;BME280_humidity;BME280_pressure;Samples;Min_cycle;Max_cycle;Signal;HPM_P1;HPM_P2
2022/04/23 00:01:03;;;;;;;17.25;11.90;;;;;;;;;;5015311;28;20032;-66
2022/04/23 00:03:48;;;;;;;15.23;12.15;;;;;;;;;;5026967;28;20029;-65
2022/04/23 00:06:34;;;;;;;16.60;13.55;;;;;;;;;;5004344;28;20026;-68
2022/04/23 00:09:19;;;;;;;14.95;12.32;;;;;;;;;;5023900;28;20079;-67
2022/04/23 00:12:04;;;;;;;17.75;13.07;;;;;;;;;;5017952;28;20025;-67
2022/04/23 00:14:49;;;;;;;15.18;12.00;;;;;;;;;;5017311;28;20480;-68
2022/04/23 00:17:35;;;;;;;15.25;12.25;;;;;;;;;;5007377;28;20053;-67
2022/04/23 00:20:23;;;;;;;16.13;13.23;;;;;;;;;;5010892;28;20034;-68
2022/04/23 00:23:08;;;;;;;17.35;13.00;;;;;;;;;;5016822;28;20040;-68
2022/04/23 00:25:55;;;;;;;19.08;12.20;;;;;;;;;;5016296;28;20045;-70
2022/04/23 00:28:40;;;;;;;17.67;12.95;;;;;;;;;;4991962;28;20068;-64
2022/04/23 00:31:26;;;;;;;15.05;12.38;;;;;;;;;;5013266;28;20175;-63
2022/04/23 00:34:12;;;;;;;16.67;13.20;;;;;;;;;;5017536;28;20120;-62
2022/04/23 00:36:57;;;;;;;15.38;12.02;;;;;;;;;;4997569;28;20091;-62
2022/04/23 00:39:43;;;;;;;15.05;12.38;;;;;;;;;;5008515;28;20034;-65
2022/04/23 00:42:28;;;;;;;17.92;13.25;;;;;;;;;;5005493;28;20034;-72
2022/04/23 00:45:14;;;;;;;16.92;12.60;;;;;;;;;;5009000;28;20059;-68
2022/04/23 00:47:59;;;;;;;15.88;12.70;;;;;;;;;;5007861;28;20034;-72
2022/04/23 00:50:44;;;;;;;17.92;13.07;;;;;;;;;;5019837;28;20021;-72
2022/04/23 00:53:31;;;;;;;17.75;14.48;;;;;;;;;;5001771;28;20026;-70
2022/04/23 00:56:17;;;;;;;16.42;12.63;;;;;;;;;;5002381;28;20025;-72
2022/04/23 00:59:10;;;;;;;18.73;14.70;;;;;;;;;;5029592;28;20029;-71
2022/04/23 01:01:56;;;;;;;15.45;13.50;;;;;;;;;;5015969;28;20508;-71
2022/04/23 01:04:41;;;;;;;14.98;12.40;;;;;;;;;;4988042;28;20068;-63
2022/04/23 01:07:26;;;;;;;16.23;13.15;;;;;;;;;;5027979;28;20041;-63
2022/04/23 01:10:12;;;;;;;14.77;11.48;;;;;;;;;;5023614;28;20137;-63
2022/04/23 01:12:57;;;;;;;18.00;13.82;;;;;;;;;;5014916;28;20033;-63
2022/04/23 01:15:59;;;;;;;16.92;13.52;;;;;;;;;;5010385;28;20042;-62
2022/04/23 01:18:44;;;;;;;16.15;12.10;;;;;;;;;;5012894;28;20430;-64
2022/04/23 01:21:29;;;;;;;17.02;13.48;;;;;;;;;;5027014;28;20028;-69
2022/04/23 01:24:15;;;;;;;17.83;12.50;;;;;;;;;;5010054;28;20017;-67
2022/04/23 01:27:00;;;;;;;17.60;13.52;;;;;;;;;;5010202;28;21528;-67
2022/04/23 01:29:46;;;;;;;15.63;12.30;;;;;;;;;;5029228;28;20504;-68
2022/04/23 01:32:31;;;;;;;16.02;12.98;;;;;;;;;;5014348;28;20034;-70
2022/04/23 01:35:16;;;;;;;14.95;12.23;;;;;;;;;;4999053;28;20306;-68
2022/04/23 01:38:01;;;;;;;15.73;12.40;;;;;;;;;;5028516;28;20049;-62
2022/04/23 01:40:47;;;;;;;14.73;12.30;;;;;;;;;;5014699;28;20038;-68
2022/04/23 01:43:32;;;;;;;15.23;12.75;;;;;;;;;;5009783;28;20107;-62
2022/04/23 01:46:17;;;;;;;19.17;12.93;;;;;;;;;;5002103;28;20025;-62
2022/04/23 01:49:02;;;;;;;15.73;13.10;;;;;;;;;;5021234;28;20066;-62
2022/04/23 01:51:48;;;;;;;19.00;11.80;;;;;;;;;;5004792;28;20525;-62
2022/04/23 01:54:33;;;;;;;16.63;12.93;;;;;;;;;;5014590;28;20025;-65
2022/04/23 01:57:19;;;;;;;16.00;12.15;;;;;;;;;;5004513;28;20045;-65
2022/04/23 02:00:05;;;;;;;15.45;12.25;;;;;;;;;;5025946;28;20026;-63
2022/04/23 02:02:51;;;;;;;15.07;12.40;;;;;;;;;;5014021;28;20084;-65
2022/04/23 02:05:37;;;;;;;14.20;11.82;;;;;;;;;;5021321;28;20030;-64
2022/04/23 02:08:22;;;;;;;17.55;13.95;;;;;;;;;;5007268;28;20037;-64
2022/04/23 02:11:08;;;;;;;16.80;12.15;;;;;;;;;;5005914;28;20073;-64
2022/04/23 02:13:53;;;;;;;16.45;12.95;;;;;;;;;;5027458;28;20124;-64
2022/04/23 02:16:40;;;;;;;16.02;12.55;;;;;;;;;;5010062;28;20068;-70
2022/04/23 02:19:25;;;;;;;15.98;13.07;;;;;;;;;;5005517;28;20029;-69
2022/04/23 02:22:10;;;;;;;17.60;12.88;;;;;;;;;;5012535;28;20160;-69
2022/04/23 02:24:56;;;;;;;14.63;12.10;;;;;;;;;;5017600;28;20639;-70
2022/04/23 02:27:46;;;;;;;15.55;11.50;;;;;;;;;;5028294;28;20061;-69
2022/04/23 02:30:32;;;;;;;16.00;12.73;;;;;;;;;;5026843;28;20477;-70
2022/04/23 02:33:17;;;;;;;15.38;11.70;;;;;;;;;;5008218;28;20036;-69
2022/04/23 02:36:03;;;;;;;16.77;12.18;;;;;;;;;;5009743;28;20025;-69
2022/04/23 02:38:50;;;;;;;15.18;12.05;;;;;;;;;;5009718;28;20438;-64
2022/04/23 02:41:35;;;;;;;13.68;11.10;;;;;;;;;;5001190;28;20033;-65
2022/04/23 02:44:20;;;;;;;19.30;13.35;;;;;;;;;;4983502;28;20483;-66
2022/04/23 02:47:06;;;;;;;13.45;11.05;;;;;;;;;;5025978;28;20119;-66
2022/04/23 02:49:51;;;;;;;14.38;12.02;;;;;;;;;;5010242;28;20042;-65
2022/04/23 02:52:37;;;;;;;15.18;10.98;;;;;;;;;;5010597;28;20029;-68
2022/04/23 02:55:23;;;;;;;15.52;10.95;;;;;;;;;;5007729;28;20029;-70
2022/04/23 02:58:09;;;;;;;12.40;10.73;;;;;;;;;;4994929;28;20369;-70
2022/04/23 03:00:55;;;;;;;14.50;10.90;;;;;;;;;;5007926;28;20092;-69
2022/04/23 03:03:40;;;;;;;13.50;10.88;;;;;;;;;;5015227;28;20067;-68
2022/04/23 03:06:29;;;;;;;13.80;10.30;;;;;;;;;;5010502;28;20073;-70
2022/04/23 03:09:14;;;;;;;13.73;10.70;;;;;;;;;;5014243;28;20029;-69
2022/04/23 03:11:59;;;;;;;15.75;12.15;;;;;;;;;;4995990;28;20025;-69
2022/04/23 03:14:45;;;;;;;14.50;10.55;;;;;;;;;;4999274;28;20064;-71
2022/04/23 03:17:31;;;;;;;17.20;12.07;;;;;;;;;;5008370;28;20091;-70
2022/04/23 03:20:16;;;;;;;14.60;11.88;;;;;;;;;;4996765;28;20063;-67
2022/04/23 03:23:01;;;;;;;16.20;11.27;;;;;;;;;;5023683;28;20041;-67
2022/04/23 03:25:47;;;;;;;16.38;11.43;;;;;;;;;;4987191;28;20037;-68
2022/04/23 03:28:32;;;;;;;14.48;12.35;;;;;;;;;;5005665;28;20038;-65
2022/04/23 03:31:17;;;;;;;16.35;13.07;;;;;;;;;;4982889;28;20098;-67
2022/04/23 03:34:02;;;;;;;15.68;12.48;;;;;;;;;;5024957;28;20385;-80
2022/04/23 03:36:48;;;;;;;13.35;11.10;;;;;;;;;;5018132;28;20025;-80
2022/04/23 03:39:33;;;;;;;16.50;13.63;;;;;;;;;;5006102;28;20091;-79
2022/04/23 03:42:18;;;;;;;16.48;12.75;;;;;;;;;;5026183;28;20056;-77
2022/04/23 03:45:04;;;;;;;15.35;11.27;;;;;;;;;;5023208;28;20037;-80
2022/04/23 03:47:50;;;;;;;18.13;14.65;;;;;;;;;;4998675;28;20507;-71
2022/04/23 03:50:35;;;;;;;16.25;12.07;;;;;;;;;;5022854;28;20026;-79
2022/04/23 03:53:20;;;;;;;16.33;11.95;;;;;;;;;;5014192;28;20390;-78
2022/04/23 03:56:06;;;;;;;17.75;13.15;;;;;;;;;;4995807;28;20024;-78
2022/04/23 03:58:51;;;;;;;16.13;12.55;;;;;;;;;;5009128;28;20030;-80
2022/04/23 04:01:37;;;;;;;17.35;13.45;;;;;;;;;;4990349;28;20065;-78
2022/04/23 04:04:22;;;;;;;16.73;13.10;;;;;;;;;;5008915;28;20030;-80
2022/04/23 04:07:07;;;;;;;15.48;13.10;;;;;;;;;;5008978;28;20029;-70
2022/04/23 04:09:52;;;;;;;15.68;11.77;;;;;;;;;;5018541;28;20109;-63
2022/04/23 04:12:38;;;;;;;14.02;11.68;;;;;;;;;;5023582;28;20060;-63
2022/04/23 04:15:23;;;;;;;16.25;12.45;;;;;;;;;;5023618;28;20040;-62
2022/04/23 04:18:09;;;;;;;14.38;12.13;;;;;;;;;;5030615;28;20171;-63
2022/04/23 04:20:55;;;;;;;17.05;13.20;;;;;;;;;;5006885;28;20060;-63
2022/04/23 04:23:40;;;;;;;15.90;12.82;;;;;;;;;;5014250;28;20354;-76
2022/04/23 04:26:25;;;;;;;15.50;12.63;;;;;;;;;;5016939;28;20032;-67
2022/04/23 04:29:11;;;;;;;16.80;13.95;;;;;;;;;;5001529;28;20040;-67
2022/04/23 04:31:56;;;;;;;17.30;12.77;;;;;;;;;;5013648;28;20030;-67
2022/04/23 04:34:42;;;;;;;15.52;12.63;;;;;;;;;;5002456;28;20033;-66
2022/04/23 04:37:30;;;;;;;17.75;14.18;;;;;;;;;;5012686;28;20515;-66
2022/04/23 04:40:15;;;;;;;19.67;14.65;;;;;;;;;;5007558;28;20026;-67
2022/04/23 04:43:00;;;;;;;16.42;13.38;;;;;;;;;;5005489;28;20047;-69
2022/04/23 04:45:45;;;;;;;16.08;14.20;;;;;;;;;;5020725;28;20172;-63
2022/04/23 04:48:31;;;;;;;19.58;14.77;;;;;;;;;;5003597;28;20044;-64
2022/04/23 04:51:16;;;;;;;18.73;13.43;;;;;;;;;;5015704;28;20032;-61
2022/04/23 04:54:02;;;;;;;17.38;14.00;;;;;;;;;;5022082;28;20108;-61
2022/04/23 04:56:51;;;;;;;16.75;12.57;;;;;;;;;;5024538;28;20033;-62
2022/04/23 04:59:36;;;;;;;18.52;14.10;;;;;;;;;;5004609;28;20034;-61
2022/04/23 05:02:21;;;;;;;17.65;13.82;;;;;;;;;;5016829;28;20033;-63
2022/04/23 05:05:07;;;;;;;17.27;14.15;;;;;;;;;;5002145;28;20110;-68
2022/04/23 05:07:52;;;;;;;16.80;12.57;;;;;;;;;;5005932;28;20030;-69
2022/04/23 05:10:37;;;;;;;17.90;13.80;;;;;;;;;;5012879;28;20104;-68
2022/04/23 05:13:23;;;;;;;17.77;14.93;;;;;;;;;;5003538;28;20433;-67
2022/04/23 05:16:08;;;;;;;17.48;14.00;;;;;;;;;;5023540;28;20036;-69
2022/04/23 05:18:53;;;;;;;18.33;14.75;;;;;;;;;;5011423;28;20032;-68
2022/04/23 05:21:38;;;;;;;15.25;13.23;;;;;;;;;;5008934;28;20111;-66
2022/04/23 05:24:24;;;;;;;16.75;13.40;;;;;;;;;;5010397;28;20025;-67
2022/04/23 05:27:09;;;;;;;14.98;12.25;;;;;;;;;;5004970;28;20033;-67
2022/04/23 05:29:54;;;;;;;18.10;14.45;;;;;;;;;;5021501;28;20026;-69
2022/04/23 05:32:40;;;;;;;15.50;13.90;;;;;;;;;;4989760;28;20056;-67
2022/04/23 05:35:25;;;;;;;14.52;12.63;;;;;;;;;;5006747;28;20461;-68
2022/04/23 05:38:10;;;;;;;13.60;11.50;;;;;;;;;;5004662;28;20041;-68
2022/04/23 05:40:55;;;;;;;16.27;12.40;;;;;;;;;;4990888;28;20025;-68
2022/04/23 05:43:41;;;;;;;14.07;11.48;;;;;;;;;;5008055;28;20409;-69
2022/04/23 05:46:28;;;;;;;14.38;12.27;;;;;;;;;;5006410;28;20072;-68
2022/04/23 05:49:14;;;;;;;14.55;11.20;;;;;;;;;;5010019;28;20199;-69
2022/04/23 05:51:59;;;;;;;14.35;11.10;;;;;;;;;;5013105;28;20035;-70
2022/04/23 05:54:44;;;;;;;14.68;11.02;;;;;;;;;;5000388;28;20026;-69
2022/04/23 05:57:30;;;;;;;15.43;12.02;;;;;;;;;;5017013;28;20108;-76
2022/04/23 06:00:16;;;;;;;16.30;11.40;;;;;;;;;;4982767;28;20030;-67
2022/04/23 06:03:01;;;;;;;17.30;12.75;;;;;;;;;;4985624;28;20088;-68
2022/04/23 06:05:46;;;;;;;14.43;11.38;;;;;;;;;;5017195;28;20038;-67
2022/04/23 06:08:32;;;;;;;13.07;10.48;;;;;;;;;;5012135;28;20452;-66
2022/04/23 06:11:17;;;;;;;13.32;11.48;;;;;;;;;;5013464;28;20029;-66
2022/04/23 06:14:02;;;;;;;12.32;9.77;;;;;;;;;;5022267;28;20026;-66
2022/04/23 06:16:47;;;;;;;12.85;10.30;;;;;;;;;;5000931;28;20144;-75
2022/04/23 06:19:33;;;;;;;13.00;11.18;;;;;;;;;;5008850;28;20029;-69
2022/04/23 06:22:19;;;;;;;13.23;10.90;;;;;;;;;;5011482;28;20029;-67
2022/04/23 06:25:06;;;;;;;12.68;10.68;;;;;;;;;;5010394;28;20037;-69
2022/04/23 06:27:51;;;;;;;15.07;10.27;;;;;;;;;;5006553;28;20041;-69
2022/04/23 06:30:37;;;;;;;13.25;11.27;;;;;;;;;;5016471;28;20037;-68
2022/04/23 06:33:22;;;;;;;13.32;10.98;;;;;;;;;;5027178;28;20025;-79
2022/04/23 06:36:10;;;;;;;12.18;9.82;;;;;;;;;;5028486;28;20476;-63
2022/04/23 06:38:55;;;;;;;11.00;9.25;;;;;;;;;;5011956;28;20033;-62
2022/04/23 06:41:40;;;;;;;10.98;9.80;;;;;;;;;;5024045;28;20130;-64
2022/04/23 06:44:25;;;;;;;13.52;9.75;;;;;;;;;;5012183;28;20049;-65
2022/04/23 06:47:11;;;;;;;11.77;9.73;;;;;;;;;;4995016;28;20037;-65
2022/04/23 06:49:56;;;;;;;12.00;9.25;;;;;;;;;;5010483;28;20184;-63
2022/04/23 06:52:42;;;;;;;11.10;9.02;;;;;;;;;;5005349;28;20056;-66
2022/04/23 06:55:27;;;;;;;14.00;9.15;;;;;;;;;;5016703;28;20366;-68
2022/04/23 06:58:12;;;;;;;9.98;8.23;;;;;;;;;;5011915;28;20064;-67
2022/04/23 07:00:58;;;;;;;11.40;9.13;;;;;;;;;;5008150;28;20033;-68
2022/04/23 07:03:43;;;;;;;10.20;8.73;;;;;;;;;;5009697;28;20034;-67
2022/04/23 07:06:29;;;;;;;11.65;8.13;;;;;;;;;;5005691;28;20120;-69
2022/04/23 07:09:14;;;;;;;9.57;8.32;;;;;;;;;;5003925;28;20112;-71
2022/04/23 07:12:00;;;;;;;10.77;9.40;;;;;;;;;;5012803;28;20033;-68
2022/04/23 07:14:45;;;;;;;10.48;7.85;;;;;;;;;;5009274;28;20033;-65
2022/04/23 07:17:30;;;;;;;10.13;7.95;;;;;;;;;;5006094;28;20025;-69
2022/04/23 07:20:16;;;;;;;12.73;9.15;;;;;;;;;;5013207;28;20159;-67
2022/04/23 07:26:06;;;;;;;10.40;8.75;;;;;;;;;;5013692;28;20017;-67
2022/04/23 07:28:52;;;;;;;10.65;8.63;;;;;;;;;;5005075;28;20124;-69
2022/04/23 07:31:37;;;;;;;11.35;9.02;;;;;;;;;;5022960;28;20418;-70
2022/04/23 07:37:30;;;;;;;12.65;8.65;;;;;;;;;;5026723;28;20017;-71
2022/04/23 07:40:16;;;;;;;11.17;8.77;;;;;;;;;;5009576;28;20427;-70
2022/04/23 07:43:01;;;;;;;11.65;9.25;;;;;;;;;;5012629;28;20021;-71
2022/04/23 07:45:46;;;;;;;11.07;8.98;;;;;;;;;;5020872;28;20042;-71
2022/04/23 07:48:33;;;;;;;11.23;8.80;;;;;;;;;;4999712;28;20065;-67
2022/04/23 07:51:18;;;;;;;12.65;9.35;;;;;;;;;;5017935;28;20532;-71
2022/04/23 07:54:04;;;;;;;11.18;9.38;;;;;;;;;;4990162;28;20124;-71
2022/04/23 07:56:49;;;;;;;10.70;8.73;;;;;;;;;;5004907;28;20059;-70
2022/04/23 07:59:37;;;;;;;10.85;8.80;;;;;;;;;;5003143;28;20022;-71
2022/04/23 08:02:22;;;;;;;11.23;8.65;;;;;;;;;;5013873;28;20112;-70
2022/04/23 08:05:12;;;;;;;12.27;9.10;;;;;;;;;;5016178;28;20500;-68
2022/04/23 08:07:57;;;;;;;11.15;8.88;;;;;;;;;;5003579;28;20057;-65
2022/04/23 08:10:44;;;;;;;11.18;8.43;;;;;;;;;;5014267;28;20036;-64
2022/04/23 08:13:29;;;;;;;10.90;8.65;;;;;;;;;;5006602;28;20490;-64
2022/04/23 08:16:15;;;;;;;11.73;8.50;;;;;;;;;;5009499;28;20056;-64
2022/04/23 08:19:00;;;;;;;10.88;9.02;;;;;;;;;;5005478;28;20141;-64
2022/04/23 08:21:45;;;;;;;11.43;8.85;;;;;;;;;;4998598;28;20036;-64
2022/04/23 08:24:31;;;;;;;10.65;8.55;;;;;;;;;;5016887;28;20111;-64
2022/04/23 08:27:16;;;;;;;12.02;8.50;;;;;;;;;;5012339;28;20025;-62
2022/04/23 08:33:06;;;;;;;11.88;8.63;;;;;;;;;;5006926;28;20105;-61
2022/04/23 08:35:52;;;;;;;10.43;8.32;;;;;;;;;;5003198;28;20163;-62
2022/04/23 08:38:37;;;;;;;10.18;7.88;;;;;;;;;;5013643;28;20076;-61
2022/04/23 08:41:28;;;;;;;11.38;9.38;;;;;;;;;;5029643;28;20416;-70
2022/04/23 08:44:16;;;;;;;10.40;8.18;;;;;;;;;;5012702;28;20374;-67
2022/04/23 08:47:01;;;;;;;10.77;8.68;;;;;;;;;;5010042;28;20075;-69
2022/04/23 08:49:49;;;;;;;11.80;8.38;;;;;;;;;;5007543;28;20041;-69
2022/04/23 08:52:34;;;;;;;11.52;9.50;;;;;;;;;;5020300;28;20048;-70
2022/04/23 08:55:20;;;;;;;11.43;9.18;;;;;;;;;;5015178;28;20029;-70
2022/04/23 08:58:05;;;;;;;12.27;8.32;;;;;;;;;;5018636;28;20641;-68
2022/04/23 09:00:50;;;;;;;11.68;9.13;;;;;;;;;;5017779;28;20061;-68
2022/04/23 09:03:36;;;;;;;10.65;8.70;;;;;;;;;;5002071;28;20117;-72
2022/04/23 09:06:21;;;;;;;11.50;8.93;;;;;;;;;;5016647;28;20389;-71
2022/04/23 09:09:07;;;;;;;12.65;9.23;;;;;;;;;;5002023;28;20061;-70
2022/04/23 09:11:56;;;;;;;12.23;9.38;;;;;;;;;;5008709;28;20037;-71
2022/04/23 09:14:42;;;;;;;14.23;11.70;;;;;;;;;;5017783;28;20080;-70
2022/04/23 09:24:09;;;;;;;12.05;9.65;;;;;;;;;;4963477;28;20057;-73
2022/04/23 09:27:02;;;;;;;10.40;8.20;;;;;;;;;;5008147;28;20048;-75
2022/04/23 09:30:19;;;;;;;11.80;8.82;;;;;;;;;;5017353;28;20369;-78
2022/04/23 09:33:05;;;;;;;12.40;8.77;;;;;;;;;;4987300;28;20033;-76
2022/04/23 09:35:54;;;;;;;12.38;9.00;;;;;;;;;;5022988;28;20611;-76
2022/04/23 09:38:42;;;;;;;13.40;9.75;;;;;;;;;;5011545;28;20029;-71
2022/04/23 09:41:31;;;;;;;12.40;10.00;;;;;;;;;;5009071;28;20117;-63
2022/04/23 09:44:17;;;;;;;10.80;8.77;;;;;;;;;;5016273;28;20025;-65
2022/04/23 09:47:02;;;;;;;11.60;8.98;;;;;;;;;;5007922;28;20175;-66
2022/04/23 09:49:57;;;;;;;10.68;8.65;;;;;;;;;;5006887;28;20034;-62
2022/04/23 09:52:42;;;;;;;12.38;8.90;;;;;;;;;;5007989;28;20084;-66
2022/04/23 09:55:28;;;;;;;11.90;7.78;;;;;;;;;;5009254;28;20477;-71
2022/04/23 09:58:13;;;;;;;10.77;8.82;;;;;;;;;;5006529;28;20040;-75
2022/04/23 10:00:59;;;;;;;12.02;7.47;;;;;;;;;;5009632;28;20029;-74
2022/04/23 10:03:45;;;;;;;11.15;7.53;;;;;;;;;;5003003;28;20033;-71
2022/04/23 10:06:35;;;;;;;11.57;8.60;;;;;;;;;;5003971;28;20128;-74
2022/04/23 10:09:24;;;;;;;12.43;8.48;;;;;;;;;;5015293;28;20038;-67
2022/04/23 10:12:12;;;;;;;10.40;7.68;;;;;;;;;;5003498;28;20018;-69
2022/04/23 10:14:59;;;;;;;10.23;7.97;;;;;;;;;;5001591;28;20040;-65
2022/04/23 10:17:46;;;;;;;10.40;7.97;;;;;;;;;;5008283;28;20033;-70
2022/04/23 10:20:32;;;;;;;10.73;7.47;;;;;;;;;;5007191;28;20017;-70
2022/04/23 10:23:21;;;;;;;10.75;7.80;;;;;;;;;;5006400;28;20071;-70
2022/04/23 10:26:07;;;;;;;;;;;;;;;;;;5001058;28;20160;-72
2022/04/23 10:28:52;;;;;;;9.75;7.18;;;;;;;;;;5014401;28;19952;-72
2022/04/23 10:31:37;;;;;;;9.82;6.78;;;;;;;;;;5005101;28;20037;-76
2022/04/23 10:34:32;;;;;;;8.82;6.43;;;;;;;;;;4996931;28;20025;-68
2022/04/23 10:37:18;;;;;;;10.25;7.40;;;;;;;;;;5008756;28;20029;-65
2022/04/23 10:40:04;;;;;;;9.23;6.07;;;;;;;;;;5020021;28;20056;-76
2022/04/23 10:43:04;;;;;;;10.65;5.60;;;;;;;;;;5006481;28;20034;-68
2022/04/23 10:45:49;;;;;;;8.20;5.72;;;;;;;;;;5001564;28;20117;-71
2022/04/23 10:48:43;;;;;;;9.98;6.00;;;;;;;;;;5019666;28;20492;-73
2022/04/23 10:51:43;;;;;;;8.50;5.53;;;;;;;;;;4996978;28;20166;-61
2022/04/23 10:54:38;;;;;;;7.28;5.03;;;;;;;;;;5020601;28;20033;-79
2022/04/23 10:57:23;;;;;;;7.43;5.40;;;;;;;;;;5013028;28;20029;-78
2022/04/23 11:00:18;;;;;;;7.95;5.72;;;;;;;;;;5026342;28;20083;-79
2022/04/23 11:03:06;;;;;;;8.98;6.45;;;;;;;;;;5008588;28;20416;-80
2022/04/23 11:12:20;;;;;;;10.07;6.97;;;;;;;;;;5004694;28;20022;-70
2022/04/23 11:15:15;;;;;;;9.50;6.63;;;;;;;;;;5022250;28;20496;-71
2022/04/23 11:18:03;;;;;;;11.32;6.55;;;;;;;;;;5000460;28;20413;-70
2022/04/23 11:20:49;;;;;;;9.23;5.93;;;;;;;;;;4998990;28;20128;-71
2022/04/23 11:23:35;;;;;;;9.85;6.35;;;;;;;;;;5010250;28;20033;-69
2022/04/23 11:26:28;;;;;;;9.38;6.75;;;;;;;;;;5013366;28;20021;-73
2022/04/23 11:29:14;;;;;;;10.25;7.30;;;;;;;;;;4999283;28;20397;-71
2022/04/23 11:31:59;;;;;;;11.65;7.32;;;;;;;;;;4996010;28;20071;-69
2022/04/23 11:34:54;;;;;;;10.10;7.00;;;;;;;;;;5009494;28;20456;-66
2022/04/23 11:37:39;;;;;;;9.50;7.13;;;;;;;;;;5010882;28;20153;-68
2022/04/23 11:40:28;;;;;;;10.23;7.53;;;;;;;;;;5007940;28;20018;-70
2022/04/23 11:43:27;;;;;;;14.45;7.13;;;;;;;;;;4998208;28;20477;-68
2022/04/23 11:46:12;;;;;;;9.50;6.40;;;;;;;;;;5014636;28;20013;-73
2022/04/23 11:48:57;;;;;;;8.82;6.40;;;;;;;;;;5016089;28;20424;-71
2022/04/23 11:51:42;;;;;;;9.77;6.90;;;;;;;;;;5017018;28;20029;-71
2022/04/23 11:54:31;;;;;;;11.30;6.82;;;;;;;;;;5017936;28;20455;-69
2022/04/23 11:57:17;;;;;;;11.00;6.95;;;;;;;;;;5008437;28;20029;-70
2022/04/23 12:00:03;;;;;;;11.40;7.88;;;;;;;;;;4998744;28;20040;-70
2022/04/23 12:02:49;;;;;;;9.45;6.90;;;;;;;;;;5009922;28;20025;-74
2022/04/23 12:05:34;;;;;;;11.63;7.68;;;;;;;;;;5003922;28;20030;-84
2022/04/23 12:08:21;;;;;;;10.30;7.03;;;;;;;;;;5013415;28;20067;-66
2022/04/23 12:11:23;;;;;;;10.38;7.20;;;;;;;;;;5015338;28;20021;-68
2022/04/23 12:14:09;;;;;;;13.23;7.35;;;;;;;;;;4998848;28;20021;-66
2022/04/23 12:17:06;;;;;;;10.75;7.47;;;;;;;;;;5018872;28;20120;-68
2022/04/23 12:19:52;;;;;;;10.82;7.28;;;;;;;;;;5003056;28;20033;-68
2022/04/23 12:22:37;;;;;;;8.73;6.82;;;;;;;;;;5016724;28;20461;-67
2022/04/23 12:25:25;;;;;;;10.75;7.38;;;;;;;;;;4995116;28;20109;-71
2022/04/23 12:40:46;;;;;;;10.68;6.78;;;;;;;;;;4997737;28;20022;-82
2022/04/23 12:43:32;;;;;;;9.68;6.47;;;;;;;;;;5012469;28;20033;-69
2022/04/23 12:46:17;;;;;;;10.38;7.07;;;;;;;;;;5001185;28;20284;-71
2022/04/23 12:49:03;;;;;;;11.43;7.47;;;;;;;;;;5027003;28;20548;-71
2022/04/23 12:51:53;;;;;;;8.13;6.22;;;;;;;;;;5003962;28;20353;-72
2022/04/23 12:54:38;;;;;;;9.75;7.00;;;;;;;;;;5002513;28;20087;-72
2022/04/23 12:57:23;;;;;;;11.23;6.40;;;;;;;;;;4993041;28;20036;-70
2022/04/23 13:00:11;;;;;;;8.88;6.97;;;;;;;;;;5013830;28;20428;-80
2022/04/23 13:02:58;;;;;;;10.23;6.93;;;;;;;;;;5003681;28;20030;-72
2022/04/23 13:05:44;;;;;;;9.48;7.35;;;;;;;;;;5015705;28;20075;-69
2022/04/23 13:11:34;;;;;;;9.80;7.80;;;;;;;;;;5010217;28;20065;-70
2022/04/23 13:14:19;;;;;;;9.90;7.20;;;;;;;;;;5003172;28;20477;-69
2022/04/23 13:17:05;;;;;;;9.30;6.55;;;;;;;;;;5029075;28;20036;-69
2022/04/23 13:19:51;;;;;;;10.85;7.30;;;;;;;;;;5028632;28;20029;-70
2022/04/23 13:22:37;;;;;;;10.88;6.75;;;;;;;;;;5003379;28;20029;-78
2022/04/23 13:25:22;;;;;;;10.35;7.15;;;;;;;;;;5014478;28;20017;-78
2022/04/23 13:28:07;;;;;;;10.55;7.13;;;;;;;;;;5002661;28;20594;-78
2022/04/23 13:30:53;;;;;;;9.13;7.10;;;;;;;;;;5016199;28;20036;-79
2022/04/23 13:33:39;;;;;;;11.80;6.80;;;;;;;;;;5009911;28;20029;-79
2022/04/23 13:36:24;;;;;;;10.60;7.28;;;;;;;;;;4999352;28;20029;-68
2022/04/23 13:39:09;;;;;;;9.27;7.60;;;;;;;;;;5012175;28;20083;-70
2022/04/23 13:41:54;;;;;;;10.57;7.28;;;;;;;;;;5015388;28;20437;-70
2022/04/23 13:44:41;;;;;;;11.73;8.07;;;;;;;;;;5011542;28;20116;-69
2022/04/23 13:47:26;;;;;;;9.75;7.25;;;;;;;;;;5001257;28;20034;-70
2022/04/23 13:50:12;;;;;;;10.23;6.90;;;;;;;;;;4982993;28;20093;-70
2022/04/23 13:52:57;;;;;;;9.65;7.75;;;;;;;;;;4998702;28;20248;-69
2022/04/23 13:55:42;;;;;;;9.15;6.95;;;;;;;;;;4992473;28;20421;-75
2022/04/23 13:58:27;;;;;;;10.50;7.00;;;;;;;;;;5002210;28;20036;-69
2022/04/23 14:01:13;;;;;;;9.68;7.20;;;;;;;;;;4993988;28;20037;-68
2022/04/23 14:10:07;;;;;;;13.10;7.85;;;;;;;;;;5004634;28;20061;-63
2022/04/23 14:12:52;;;;;;;13.48;9.10;;;;;;;;;;5017940;28;20490;-66
2022/04/23 14:15:37;;;;;;;11.85;7.85;;;;;;;;;;5004071;28;20408;-70
2022/04/23 14:18:23;;;;;;;10.18;8.55;;;;;;;;;;4992831;28;20018;-69
2022/04/23 14:21:08;;;;;;;10.32;8.60;;;;;;;;;;4996980;28;20026;-71
2022/04/23 14:23:53;;;;;;;10.15;8.10;;;;;;;;;;5026294;28;20582;-69
2022/04/23 14:26:38;;;;;;;12.18;8.93;;;;;;;;;;4995188;28;20026;-70
2022/04/23 14:29:24;;;;;;;14.93;8.30;;;;;;;;;;5025532;28;20119;-69
2022/04/23 14:32:09;;;;;;;11.20;7.82;;;;;;;;;;5013265;28;20029;-70
2022/04/23 14:34:54;;;;;;;10.57;8.20;;;;;;;;;;4997181;28;20021;-69
2022/04/23 14:37:39;;;;;;;13.13;8.35;;;;;;;;;;5007585;28;20496;-70
2022/04/23 14:40:25;;;;;;;12.57;8.38;;;;;;;;;;5002761;28;20018;-73
2022/04/23 14:43:11;;;;;;;10.60;8.23;;;;;;;;;;4989867;28;20401;-70
2022/04/23 14:45:56;;;;;;;11.15;8.93;;;;;;;;;;5006935;28;20053;-72
2022/04/23 14:48:43;;;;;;;11.40;8.75;;;;;;;;;;5009878;28;20052;-70
2022/04/23 14:54:32;;;;;;;11.07;8.70;;;;;;;;;;5014001;28;20025;-80
2022/04/23 14:57:17;;;;;;;12.38;9.32;;;;;;;;;;5012145;28;20064;-81
2022/04/23 15:00:04;;;;;;;12.98;9.63;;;;;;;;;;5006639;28;20032;-80
2022/04/23 15:02:51;;;;;;;11.27;8.30;;;;;;;;;;5005086;28;20130;-81
2022/04/23 15:05:37;;;;;;;11.85;8.40;;;;;;;;;;5005120;28;20117;-80
2022/04/23 15:08:22;;;;;;;11.40;8.40;;;;;;;;;;5004905;28;20090;-77
2022/04/23 15:11:12;;;;;;;15.27;9.25;;;;;;;;;;4997113;28;20040;-68
2022/04/23 15:13:58;;;;;;;11.73;8.30;;;;;;;;;;5007258;28;20041;-72
2022/04/23 15:16:44;;;;;;;11.35;9.38;;;;;;;;;;5007788;28;20517;-69
2022/04/23 15:19:29;;;;;;;11.77;9.43;;;;;;;;;;5009020;28;20018;-72
2022/04/23 15:22:14;;;;;;;13.32;10.60;;;;;;;;;;5016102;28;20390;-69
2022/04/23 15:25:01;;;;;;;24.50;10.13;;;;;;;;;;5008646;28;20025;-71
2022/04/23 15:27:46;;;;;;;14.95;10.30;;;;;;;;;;5009606;28;20305;-84
2022/04/23 15:30:31;;;;;;;16.23;11.05;;;;;;;;;;4991110;28;20424;-68
2022/04/23 15:33:17;;;;;;;17.52;10.05;;;;;;;;;;5005978;28;20044;-66
2022/04/23 15:36:03;;;;;;;12.10;10.25;;;;;;;;;;5021163;28;20056;-71
2022/04/23 15:38:48;;;;;;;13.02;10.07;;;;;;;;;;5001098;28;20040;-72
2022/04/23 15:41:33;;;;;;;13.98;10.80;;;;;;;;;;5018612;28;20013;-67
2022/04/23 15:44:19;;;;;;;11.88;9.57;;;;;;;;;;5005417;28;20096;-69
2022/04/23 15:47:04;;;;;;;12.48;9.88;;;;;;;;;;5000799;28;20029;-79
2022/04/23 15:49:49;;;;;;;14.07;9.93;;;;;;;;;;5013295;28;20424;-72
2022/04/23 15:52:35;;;;;;;11.48;9.32;;;;;;;;;;5002330;28;20088;-70
2022/04/23 15:55:20;;;;;;;14.25;10.77;;;;;;;;;;5002391;28;20064;-71
2022/04/23 15:58:05;;;;;;;14.75;11.00;;;;;;;;;;4998595;28;20040;-69
2022/04/23 16:00:51;;;;;;;17.10;10.55;;;;;;;;;;4984554;28;20470;-72
2022/04/23 16:03:36;;;;;;;14.23;9.75;;;;;;;;;;4987825;28;20389;-78
2022/04/23 16:06:21;;;;;;;15.43;10.40;;;;;;;;;;5004782;28;20388;-70
2022/04/23 16:09:07;;;;;;;12.98;9.85;;;;;;;;;;5015428;28;20147;-70
2022/04/23 16:11:52;;;;;;;12.52;10.13;;;;;;;;;;4994530;28;20030;-72
2022/04/23 16:14:37;;;;;;;15.68;11.38;;;;;;;;;;4990441;28;20029;-70
2022/04/23 16:17:23;;;;;;;19.15;11.88;;;;;;;;;;5025608;28;20029;-70
2022/04/23 16:20:08;;;;;;;12.93;10.60;;;;;;;;;;5009290;28;20033;-74
2022/04/23 16:22:53;;;;;;;14.80;11.73;;;;;;;;;;5013377;28;20033;-76
2022/04/23 16:25:39;;;;;;;15.38;11.73;;;;;;;;;;5010716;28;20477;-72
2022/04/23 16:28:24;;;;;;;15.68;11.32;;;;;;;;;;4998547;28;20127;-70
2022/04/23 16:31:10;;;;;;;16.13;10.90;;;;;;;;;;4987528;28;20077;-69
2022/04/23 16:33:56;;;;;;;14.57;11.43;;;;;;;;;;5015727;28;20489;-70
2022/04/23 16:48:57;;;;;;;14.65;11.23;;;;;;;;;;5029249;28;20381;-71
2022/04/23 16:51:43;;;;;;;16.40;10.57;;;;;;;;;;5011272;28;20389;-69
2022/04/23 16:54:28;;;;;;;14.50;10.85;;;;;;;;;;5007067;28;20026;-72
2022/04/23 16:57:13;;;;;;;18.23;12.13;;;;;;;;;;5017533;28;20036;-72
2022/04/23 16:59:59;;;;;;;15.13;11.00;;;;;;;;;;5015869;28;20030;-71
2022/04/23 17:02:44;;;;;;;14.07;11.88;;;;;;;;;;5016489;28;20145;-69
2022/04/23 17:05:29;;;;;;;16.17;11.98;;;;;;;;;;5024479;28;20026;-70
2022/04/23 17:08:15;;;;;;;15.90;11.73;;;;;;;;;;4997597;28;20489;-71
2022/04/23 17:11:00;;;;;;;16.75;11.23;;;;;;;;;;5015841;28;20037;-70
2022/04/23 17:13:46;;;;;;;15.68;11.40;;;;;;;;;;5000332;28;20088;-69
2022/04/23 17:16:31;;;;;;;16.55;12.50;;;;;;;;;;5010422;28;20058;-70